createdAt,value
2022-08-17T00:00:43.158Z,100500.88
2022-08-17T00:03:08.776Z,100510.50
2022-08-17T00:05:47.324Z,100518.25
2022-08-17T00:08:15.536Z,100510.78
2022-08-17T00:10:43.924Z,100513.00
2022-08-17T00:13:15.889Z,100509.16
2022-08-17T00:15:44.857Z,100510.78
2022-08-17T00:19:01.662Z,100504.47
2022-08-17T00:21:04.363Z,100503.38
2022-08-17T00:23:44.510Z,100512.72
2022-08-17T00:26:43.190Z,100510.78
2022-08-17T00:29:06.597Z,100501.69
2022-08-17T00:31:35.612Z,100498.94
2022-08-17T00:34:03.848Z,100504.47
2022-08-17T00:36:31.338Z,100497.31
2022-08-17T00:38:58.792Z,100492.59
2022-08-17T00:41:27.322Z,100491.50
2022-08-17T00:43:59.557Z,100485.16
2022-08-17T00:46:30.172Z,100495.09
2022-08-17T00:48:57.728Z,100491.50
2022-08-17T00:51:49.379Z,100476.88
2022-08-17T00:54:31.861Z,100482.41
2022-08-17T00:57:02.857Z,100476.88
2022-08-17T00:59:32.370Z,100476.06
2022-08-17T01:01:59.865Z,100470.56
2022-08-17T01:04:29.119Z,100461.47
2022-08-17T01:06:57.305Z,100461.47
2022-08-17T01:09:24.754Z,100468.88
2022-08-17T01:11:52.425Z,100470.56
2022-08-17T01:14:21.537Z,100463.09
2022-08-17T01:16:50.593Z,100475.25
2022-08-17T01:19:23.316Z,100476.06
2022-08-17T01:21:54.635Z,100469.75
2022-08-17T01:24:22.155Z,100482.41
2022-08-17T01:26:49.637Z,100475.25
2022-08-17T01:29:17.354Z,100481.59
2022-08-17T01:31:47.429Z,100481.59
2022-08-17T01:34:15.666Z,100465.31
2022-08-17T01:36:44.642Z,100480.75
2022-08-17T01:39:27.086Z,100473.31
2022-08-17T01:42:06.971Z,100472.19
2022-08-17T01:44:34.469Z,100463.09
2022-08-17T01:47:06.023Z,100468.34
2022-08-17T01:49:33.492Z,100467.78
2022-08-17T01:52:06.653Z,100472.50
2022-08-17T01:54:36.425Z,100482.41
2022-08-17T01:57:04.113Z,100478.28
2022-08-17T01:59:31.648Z,100490.66
2022-08-17T02:01:59.247Z,100488.19
2022-08-17T02:04:26.744Z,100496.47
2022-08-17T02:06:54.672Z,100504.47
2022-08-17T02:09:25.362Z,100508.34
2022-08-17T02:11:56.638Z,100510.25
2022-08-17T02:14:24.325Z,100508.03
2022-08-17T02:16:52.091Z,100512.72
2022-08-17T02:19:19.687Z,100513.84
2022-08-17T02:21:48.567Z,100506.41
2022-08-17T02:24:58.413Z,100507.50
2022-08-17T02:27:11.329Z,100506.13
2022-08-17T02:29:38.777Z,100516.31
2022-08-17T02:32:06.465Z,100517.16
2022-08-17T02:34:33.910Z,100521.81
2022-08-17T02:37:01.309Z,100525.69
2022-08-17T02:39:28.796Z,100517.44
2022-08-17T02:42:02.724Z,100513.00
2022-08-17T02:44:35.437Z,100511.63
2022-08-17T02:47:08.771Z,100522.94
2022-08-17T02:49:36.598Z,100515.47
2022-08-17T02:52:05.103Z,100521.00
2022-08-17T02:54:40.852Z,100525.69
2022-08-17T02:57:09.926Z,100526.50
2022-08-17T02:59:43.294Z,100523.75
2022-08-17T03:02:15.877Z,100526.50
2022-08-17T03:04:45.924Z,100525.69
2022-08-17T03:07:13.380Z,100524.56
2022-08-17T03:09:46.433Z,100525.69
2022-08-17T03:12:14.028Z,100523.75
2022-08-17T03:14:42.016Z,100518.25
2022-08-17T03:17:10.736Z,100515.47
2022-08-17T03:19:42.955Z,100525.69
2022-08-17T03:22:37.231Z,100519.38
2022-08-17T03:24:58.599Z,100520.72
2022-08-17T03:27:26.045Z,100530.09
2022-08-17T03:29:54.402Z,100526.50
2022-08-17T03:32:21.814Z,100525.69
2022-08-17T03:34:49.184Z,100521.00
2022-08-17T03:37:16.605Z,100515.75
2022-08-17T03:39:44.111Z,100513.84
2022-08-17T03:42:31.526Z,100507.50
2022-08-17T03:45:00.664Z,100505.28
2022-08-17T03:47:46.679Z,100498.13
2022-08-17T03:50:33.098Z,100502.50
2022-08-17T03:53:19.084Z,100491.78
2022-08-17T03:56:04.984Z,100489.03
2022-08-17T03:58:32.427Z,100486.28
2022-08-17T04:00:59.862Z,100485.44
2022-08-17T04:03:27.317Z,100487.91
2022-08-17T04:05:55.853Z,100474.41
2022-08-17T04:08:23.259Z,100469.16
2022-08-17T04:10:50.714Z,100481.03
2022-08-17T04:13:24.244Z,100495.66
2022-08-17T04:15:53.410Z,100499.22
2022-08-17T04:18:20.861Z,100499.50
2022-08-17T04:20:48.308Z,100495.66
2022-08-17T04:23:17.036Z,100502.25
2022-08-17T04:25:49.366Z,100502.25
2022-08-17T04:28:17.878Z,100501.44
2022-08-17T04:30:45.528Z,100507.75
2022-08-17T04:33:15.141Z,100506.94
2022-08-17T04:35:44.702Z,100499.50
2022-08-17T04:38:15.462Z,100503.09
2022-08-17T04:41:01.455Z,100498.69
2022-08-17T04:43:29.414Z,100505.84
2022-08-17T04:45:58.919Z,100500.63
2022-08-17T04:48:29.818Z,100509.69
2022-08-17T04:51:10.381Z,100502.56
2022-08-17T04:53:39.738Z,100505.00
2022-08-17T04:56:07.468Z,100514.13
2022-08-17T04:58:39.343Z,100521.56
2022-08-17T05:01:07.150Z,100514.41
2022-08-17T05:03:34.648Z,100515.22
2022-08-17T05:06:02.184Z,100517.97
2022-08-17T05:08:29.622Z,100519.63
2022-08-17T05:10:59.229Z,100522.66
2022-08-17T05:13:27.274Z,100530.94
2022-08-17T05:15:59.147Z,100548.31
2022-08-17T05:18:27.479Z,100555.47
2022-08-17T05:20:57.610Z,100557.41
2022-08-17T05:23:26.063Z,100570.09
2022-08-17T05:25:55.363Z,100564.84
2022-08-17T05:28:27.566Z,100572.84
2022-08-17T05:30:59.344Z,100575.06
2022-08-17T05:33:29.036Z,100584.16
2022-08-17T05:35:59.408Z,100592.16
2022-08-17T05:38:28.765Z,100605.13
2022-08-17T05:40:56.425Z,100610.63
2022-08-17T05:43:28.966Z,100598.75
2022-08-17T05:46:17.576Z,100596.28
2022-08-17T05:48:49.879Z,100592.41
2022-08-17T05:51:44.455Z,100598.75
2022-08-17T05:54:37.012Z,100605.13
2022-08-17T05:57:28.428Z,100613.13
2022-08-17T06:00:20.251Z,100609.78
2022-08-17T06:03:23.515Z,100614.75
2022-08-17T06:06:02.765Z,100623.28
2022-08-17T06:08:51.496Z,100620.53
2022-08-17T06:11:22.751Z,100628.81
2022-08-17T06:14:09.458Z,100632.41
2022-08-17T06:16:41.665Z,100639.84
2022-08-17T06:19:15.031Z,100630.75
2022-08-17T06:21:44.499Z,100640.69
2022-08-17T06:24:30.064Z,100647.84
2022-08-17T06:27:06.599Z,100641.50
2022-08-17T06:29:55.331Z,100641.50
2022-08-17T06:32:23.239Z,100644.00
2022-08-17T06:34:50.708Z,100642.88
2022-08-17T06:37:33.277Z,100641.22
2022-08-17T06:40:18.995Z,100648.66
2022-08-17T06:43:12.684Z,100647.84
2022-08-17T06:46:18.403Z,100660.53
2022-08-17T06:49:01.202Z,100656.66
2022-08-17T06:51:33.555Z,100653.09
2022-08-17T06:54:33.289Z,100652.25
2022-08-17T06:57:15.631Z,100656.66
2022-08-17T07:00:01.940Z,100645.91
2022-08-17T07:02:53.555Z,100649.50
2022-08-17T07:05:27.431Z,100655.03
2022-08-17T07:08:02.854Z,100653.09
2022-08-17T07:10:36.420Z,100642.06
2022-08-17T07:13:33.155Z,100644.81
2022-08-17T07:16:14.736Z,100637.34
2022-08-17T07:18:43.777Z,100629.09
2022-08-17T07:21:29.643Z,100626.31
2022-08-17T07:24:29.512Z,100633.78
2022-08-17T07:27:16.470Z,100631.84
2022-08-17T07:30:11.066Z,100625.50
2022-08-17T07:32:57.881Z,100617.22
2022-08-17T07:35:31.358Z,100614.22
2022-08-17T07:38:25.045Z,100626.31
2022-08-17T07:41:06.278Z,100623.56
2022-08-17T07:43:39.459Z,100610.06
2022-08-17T07:46:34.555Z,100610.59
2022-08-17T07:49:07.521Z,100601.22
2022-08-17T07:51:39.273Z,100594.34
2022-08-17T07:54:15.660Z,100603.44
2022-08-17T07:56:52.522Z,100596.81
2022-08-17T07:59:23.599Z,100606.75
2022-08-17T08:01:55.565Z,100604.25
2022-08-17T08:07:27.143Z,100594.91
2022-08-17T08:10:10.955Z,100598.47
2022-08-17T08:12:48.364Z,100607.84
2022-08-17T08:15:26.088Z,100604.81
2022-08-17T08:18:04.705Z,100611.44
2022-08-17T08:20:52.306Z,100609.50
2022-08-17T08:23:37.213Z,100603.19
2022-08-17T08:26:16.533Z,100591.84
2022-08-17T08:28:45.929Z,100597.66
2022-08-17T08:31:32.117Z,100582.22
2022-08-17T08:34:53.180Z,100597.66
2022-08-17T08:37:14.761Z,100604.81
2022-08-17T08:40:07.439Z,100603.19
2022-08-17T08:42:35.284Z,100604.00
2022-08-17T08:45:57.099Z,100610.59
2022-08-17T08:49:06.539Z,100602.06
2022-08-17T08:52:00.918Z,100608.69
2022-08-17T08:54:48.404Z,100617.78
2022-08-17T08:57:34.330Z,100596.00
2022-08-17T09:00:05.064Z,100588.53
2022-08-17T09:02:46.829Z,100584.16
2022-08-17T09:05:26.211Z,100590.22
2022-08-17T09:08:17.599Z,100603.19
2022-08-17T09:10:53.123Z,100609.50
2022-08-17T09:13:22.112Z,100607.56
2022-08-17T09:15:57.313Z,100602.31
2022-08-17T09:19:01.849Z,100599.28
2022-08-17T09:21:25.122Z,100604.00
2022-08-17T09:24:04.874Z,100610.31
2022-08-17T09:26:37.719Z,100598.19
2022-08-17T09:29:10.018Z,100602.88
2022-08-17T09:31:48.698Z,100592.97
2022-08-17T09:34:19.377Z,100593.78
2022-08-17T09:37:11.145Z,100596.53
2022-08-17T09:39:46.493Z,100602.06
2022-08-17T09:42:37.225Z,100594.59
2022-08-17T09:45:15.435Z,100596.53
2022-08-17T09:47:52.706Z,100594.59
2022-08-17T09:51:01.598Z,100596.81
2022-08-17T09:53:16.133Z,100591.84
2022-08-17T09:55:54.420Z,100591.03
2022-08-17T09:58:31.469Z,100593.78
2022-08-17T10:01:08.256Z,100595.72
2022-08-17T10:03:35.607Z,100595.44
2022-08-17T10:06:33.708Z,100594.91
2022-08-17T10:09:08.606Z,100589.09
2022-08-17T10:12:00.643Z,100589.09
2022-08-17T10:14:44.328Z,100602.06
2022-08-17T10:17:27.988Z,100593.78
2022-08-17T10:20:01.580Z,100580.53
2022-08-17T10:23:09.243Z,100587.44
2022-08-17T10:26:13.624Z,100595.16
2022-08-17T10:28:49.850Z,100602.88
2022-08-17T10:31:34.646Z,100597.34
2022-08-17T10:34:24.388Z,100600.97
2022-08-17T10:37:00.653Z,100609.22
2022-08-17T10:39:28.071Z,100609.50
2022-08-17T10:41:57.821Z,100611.44
2022-08-17T10:44:45.846Z,100612.53
2022-08-17T10:47:17.749Z,100614.75
2022-08-17T10:49:53.881Z,100605.63
2022-08-17T10:52:26.178Z,100617.50
2022-08-17T10:54:59.151Z,100625.78
2022-08-17T10:57:29.389Z,100618.59
2022-08-17T10:59:57.832Z,100609.22
2022-08-17T11:02:38.443Z,100610.31
2022-08-17T11:05:08.985Z,100610.31
2022-08-17T11:08:05.233Z,100609.50
2022-08-17T11:10:52.248Z,100598.19
2022-08-17T11:13:48.403Z,100596.53
2022-08-17T11:16:35.104Z,100603.19
2022-08-17T11:19:11.551Z,100591.84
2022-08-17T11:21:42.665Z,100597.34
2022-08-17T11:24:12.986Z,100593.78
2022-08-17T11:26:46.741Z,100591.03
2022-08-17T11:29:18.630Z,100588.25
2022-08-17T11:31:58.273Z,100582.75
2022-08-17T11:34:26.833Z,100578.91
2022-08-17T11:36:57.209Z,100580.81
2022-08-17T11:39:44.490Z,100576.41
2022-08-17T11:42:38.617Z,100572.53
2022-08-17T11:45:31.737Z,100562.34
2022-08-17T11:48:41.730Z,100567.88
2022-08-17T11:51:28.386Z,100563.19
2022-08-17T11:54:31.207Z,100549.66
2022-08-17T11:56:52.831Z,100551.03
2022-08-17T11:59:44.868Z,100556.00
2022-08-17T12:02:31.659Z,100558.47
2022-08-17T12:05:02.918Z,100551.31
2022-08-17T12:07:32.632Z,100552.41
2022-08-17T12:10:00.103Z,100552.41
2022-08-17T12:12:35.908Z,100556.00
2022-08-17T12:15:12.555Z,100555.19
2022-08-17T12:17:42.683Z,100557.66
2022-08-17T12:20:36.060Z,100564.56
2022-08-17T12:23:09.327Z,100568.69
2022-08-17T12:25:50.667Z,100568.69
2022-08-17T12:28:27.767Z,100562.34
2022-08-17T12:30:57.780Z,100572.25
2022-08-17T12:33:28.403Z,100573.09
2022-08-17T12:36:04.455Z,100580.53
2022-08-17T12:38:34.767Z,100584.13
2022-08-17T12:41:24.619Z,100580.53
2022-08-17T12:44:06.311Z,100581.34
2022-08-17T12:46:45.092Z,100573.09
2022-08-17T12:49:19.925Z,100578.91
2022-08-17T12:51:47.487Z,100576.16
2022-08-17T12:54:44.346Z,100567.88
2022-08-17T12:57:18.161Z,100556.84
2022-08-17T12:59:48.803Z,100549.13
2022-08-17T13:02:20.944Z,100557.66
2022-08-17T13:04:48.381Z,100567.28
2022-08-17T13:07:26.965Z,100570.63
2022-08-17T13:09:54.538Z,100569.22
2022-08-17T13:12:33.175Z,100564.00
2022-08-17T13:15:00.630Z,100560.13
2022-08-17T13:17:30.156Z,100565.66
2022-08-17T13:19:57.729Z,100564.00
2022-08-17T13:22:25.962Z,100568.41
2022-08-17T13:24:56.175Z,100566.75
2022-08-17T13:27:25.154Z,100564.00
2022-08-17T13:29:58.070Z,100567.88
2022-08-17T13:32:33.626Z,100572.25
2022-08-17T13:35:44.252Z,100571.16
2022-08-17T13:38:37.459Z,100574.75
2022-08-17T13:41:06.358Z,100578.06
2022-08-17T13:43:44.626Z,100577.50
2022-08-17T13:46:20.729Z,100577.50
2022-08-17T13:49:06.279Z,100575.84
2022-08-17T13:51:36.543Z,100572.81
2022-08-17T13:54:05.039Z,100572.00
2022-08-17T13:56:57.724Z,100564.00
2022-08-17T13:59:54.851Z,100568.09
2022-08-17T14:02:23.115Z,100562.59
2022-08-17T14:04:55.575Z,100557.94
2022-08-17T14:07:31.746Z,100549.94
2022-08-17T14:10:05.062Z,100534.19
2022-08-17T14:12:33.887Z,100529.81
2022-08-17T14:15:01.366Z,100533.38
2022-08-17T14:17:29.574Z,100535.03
2022-08-17T14:19:57.690Z,100524.00
2022-08-17T14:22:30.611Z,100516.03
2022-08-17T14:24:58.365Z,100503.88
2022-08-17T14:27:28.213Z,100502.22
2022-08-17T14:29:55.908Z,100509.91
2022-08-17T14:32:28.211Z,100499.16
2022-08-17T14:34:57.796Z,100492.84
2022-08-17T14:37:28.509Z,100504.41
2022-08-17T14:39:57.445Z,100501.94
2022-08-17T14:42:26.368Z,100498.88
2022-08-17T14:44:54.274Z,100511.88
2022-08-17T14:47:24.439Z,100512.69
2022-08-17T14:49:52.008Z,100513.81
2022-08-17T14:52:21.834Z,100497.53
2022-08-17T14:54:51.352Z,100481.53
2022-08-17T14:57:33.042Z,100459.47
2022-08-17T15:00:01.454Z,100442.09
2022-08-17T15:02:30.677Z,100448.72
2022-08-17T15:05:03.894Z,100450.38
2022-08-17T15:07:31.654Z,100448.44
2022-08-17T15:10:01.500Z,100445.97
2022-08-17T15:12:32.837Z,100440.44
2022-08-17T15:15:04.778Z,100440.44
2022-08-17T15:17:54.705Z,100440.97
2022-08-17T15:20:27.895Z,100437.41
2022-08-17T15:22:56.174Z,100432.72
2022-08-17T15:25:25.271Z,100430.22
2022-08-17T15:27:53.754Z,100427.47
2022-08-17T15:30:21.357Z,100420.84
2022-08-17T15:32:51.294Z,100413.69
2022-08-17T15:35:27.809Z,100421.13
2022-08-17T15:38:04.564Z,100416.44
2022-08-17T15:40:36.586Z,100405.13
2022-08-17T15:43:08.620Z,100422.81
2022-08-17T15:45:36.106Z,100429.13
2022-08-17T15:48:04.218Z,100428.00
2022-08-17T15:50:31.802Z,100425.25
2022-08-17T15:52:59.996Z,100431.88
2022-08-17T15:55:28.520Z,100427.19
2022-08-17T15:57:56.015Z,100423.63
2022-08-17T16:00:28.407Z,100435.47
2022-08-17T16:03:44.544Z,100431.06
2022-08-17T16:05:44.511Z,100440.97
2022-08-17T16:08:18.549Z,100445.69
2022-08-17T16:10:51.027Z,100451.19
2022-08-17T16:13:18.693Z,100463.03
2022-08-17T16:15:56.779Z,100470.50
2022-08-17T16:18:33.883Z,100476.84
2022-08-17T16:21:22.741Z,100480.41
2022-08-17T16:23:51.809Z,100477.66
2022-08-17T16:26:19.264Z,100463.84
2022-08-17T16:28:46.756Z,100465.81
2022-08-17T16:31:14.611Z,100452.00
2022-08-17T16:33:42.214Z,100445.69
2022-08-17T16:36:30.115Z,100447.31
2022-08-17T16:39:01.378Z,100431.88
2022-08-17T16:41:45.035Z,100409.84
2022-08-17T16:44:19.340Z,100407.88
2022-08-17T16:46:50.404Z,100407.88
2022-08-17T16:49:31.559Z,100404.31
2022-08-17T16:52:04.671Z,100400.44
2022-08-17T16:54:35.353Z,100402.38
2022-08-17T16:57:05.251Z,100394.09
2022-08-17T16:59:40.749Z,100391.34
2022-08-17T17:02:13.468Z,100384.19
2022-08-17T17:04:48.396Z,100392.47
2022-08-17T17:07:37.804Z,100388.59
2022-08-17T17:10:08.102Z,100398.53
2022-08-17T17:13:02.187Z,100411.78
2022-08-17T17:15:27.532Z,100425.25
2022-08-17T17:17:59.888Z,100422.50
2022-08-17T17:20:50.739Z,100437.41
2022-08-17T17:23:43.688Z,100442.66
2022-08-17T17:26:36.507Z,100441.53
2022-08-17T17:29:12.717Z,100434.38
2022-08-17T17:31:45.170Z,100429.13
2022-08-17T17:34:13.747Z,100427.19
2022-08-17T17:36:48.303Z,100429.94
2022-08-17T17:39:17.295Z,100440.97
2022-08-17T17:42:05.763Z,100449.25
2022-08-17T17:44:35.178Z,100446.50
2022-08-17T17:47:02.899Z,100436.28
2022-08-17T17:49:33.706Z,100446.50
2022-08-17T17:52:24.275Z,100460.28
2022-08-17T17:55:10.347Z,100464.72
2022-08-17T17:58:20.688Z,100466.63
2022-08-17T18:01:12.820Z,100502.19
2022-08-17T18:03:50.666Z,100507.72
2022-08-17T18:06:24.203Z,100491.44
2022-08-17T18:09:12.290Z,100472.13
2022-08-17T18:12:03.475Z,100511.28
2022-08-17T18:15:10.005Z,100541.06
2022-08-17T18:17:37.521Z,100574.72
2022-08-17T18:20:06.963Z,100602.28
2022-08-17T18:22:34.540Z,100572.25
2022-08-17T18:25:01.992Z,100553.50
2022-08-17T18:27:38.543Z,100555.41
2022-08-17T18:30:14.839Z,100582.16
2022-08-17T18:32:43.714Z,100575.03
2022-08-17T18:35:11.110Z,100572.25
2022-08-17T18:37:49.380Z,100577.22
2022-08-17T18:40:17.015Z,100590.72
2022-08-17T18:43:00.461Z,100573.91
2022-08-17T18:45:47.998Z,100574.16
2022-08-17T18:48:23.977Z,100584.09
2022-08-17T18:50:53.560Z,100588.81
2022-08-17T18:53:27.065Z,100581.63
2022-08-17T18:56:37.794Z,100587.13
2022-08-17T18:59:23.735Z,100601.75
2022-08-17T19:01:59.886Z,100605.34
2022-08-17T19:05:07.901Z,100601.75
2022-08-17T19:07:43.093Z,100599.84
2022-08-17T19:10:45.937Z,100587.13
2022-08-17T19:13:34.345Z,100593.19
2022-08-17T19:16:12.338Z,100615.53
2022-08-17T19:18:49.372Z,100615.00
2022-08-17T19:21:20.003Z,100611.13
2022-08-17T19:23:53.685Z,100602.06
2022-08-17T19:26:50.741Z,100603.69
2022-08-17T19:29:19.521Z,100620.22
2022-08-17T19:31:50.059Z,100611.13
2022-08-17T19:34:32.328Z,100599.28
2022-08-17T19:37:08.996Z,100577.78
2022-08-17T19:39:50.292Z,100565.91
2022-08-17T19:42:47.681Z,100578.06
2022-08-17T19:45:36.968Z,100583.56
2022-08-17T19:48:51.986Z,100585.19
2022-08-17T19:51:36.546Z,100579.41
2022-08-17T19:54:45.283Z,100574.47
2022-08-17T19:57:17.845Z,100569.78
2022-08-17T19:59:51.395Z,100565.91
2022-08-17T20:02:33.843Z,100572.53
2022-08-17T20:05:06.552Z,100565.34
2022-08-17T20:07:47.057Z,100565.34
2022-08-17T20:10:40.351Z,100565.34
2022-08-17T20:13:33.586Z,100572.53
2022-08-17T20:16:02.411Z,100569.50
2022-08-17T20:18:43.975Z,100567.28
2022-08-17T20:21:20.183Z,100568.97
2022-08-17T20:24:18.562Z,100566.19
2022-08-17T20:26:55.302Z,100570.59
2022-08-17T20:29:40.019Z,100578.31
2022-08-17T20:32:18.327Z,100568.97
2022-08-17T20:34:46.524Z,100573.63
2022-08-17T20:37:14.249Z,100576.38
2022-08-17T20:39:45.594Z,100579.44
2022-08-17T20:42:22.324Z,100589.34
2022-08-17T20:44:51.920Z,100592.13
2022-08-17T20:47:27.137Z,100603.97
2022-08-17T20:50:01.341Z,100608.66
2022-08-17T20:52:48.991Z,100626.88
2022-08-17T20:55:51.557Z,100612.22
2022-08-17T20:58:30.016Z,100609.19
2022-08-17T21:00:59.016Z,100610.03
2022-08-17T21:03:40.023Z,100613.09
2022-08-17T21:06:18.661Z,100613.91
2022-08-17T21:08:53.835Z,100603.13
2022-08-17T21:11:57.172Z,100598.75
2022-08-17T21:14:36.680Z,100587.41
2022-08-17T21:17:37.473Z,100587.72
2022-08-17T21:20:14.807Z,100575.84
2022-08-17T21:23:05.288Z,100573.09
2022-08-17T21:26:03.146Z,100570.06
2022-08-17T21:29:01.102Z,100572.00
2022-08-17T21:31:34.272Z,100577.50
2022-08-17T21:34:26.512Z,100583.84
2022-08-17T21:36:54.003Z,100572.81
2022-08-17T21:39:33.311Z,100591.56
2022-08-17T21:42:01.003Z,100593.78
2022-08-17T21:44:37.041Z,100591.56
2022-08-17T21:47:24.701Z,100583.84
2022-08-17T21:49:53.108Z,100592.13
2022-08-17T21:52:22.320Z,100587.72
2022-08-17T21:54:54.657Z,100586.88
2022-08-17T21:57:27.356Z,100586.88
2022-08-17T22:00:00.147Z,100577.78
2022-08-17T22:02:32.759Z,100570.63
2022-08-17T22:05:09.446Z,100582.47
2022-08-17T22:07:39.797Z,100583.84
2022-08-17T22:10:25.927Z,100586.59
2022-08-17T22:13:16.845Z,100593.22
2022-08-17T22:15:49.841Z,100594.06
2022-08-17T22:18:24.832Z,100596.00
2022-08-17T22:20:54.188Z,100588.53
2022-08-17T22:23:43.221Z,100596.25
2022-08-17T22:26:13.302Z,100592.13
2022-08-17T22:28:56.422Z,100585.22
2022-08-17T22:31:28.233Z,100589.34
2022-08-17T22:33:59.880Z,100583.28
2022-08-17T22:36:32.057Z,100576.16
2022-08-17T22:39:00.240Z,100572.00
2022-08-17T22:41:34.654Z,100575.03
2022-08-17T22:44:26.286Z,100575.03
2022-08-17T22:46:54.428Z,100568.41
2022-08-17T22:49:34.176Z,100569.50
2022-08-17T22:52:10.430Z,100569.78
2022-08-17T22:54:56.671Z,100565.94
2022-08-17T22:57:56.231Z,100559.28
2022-08-17T23:00:43.671Z,100557.38
2022-08-17T23:03:25.048Z,100552.97
2022-08-17T23:06:09.665Z,100540.84
2022-08-17T23:09:04.491Z,100545.50
2022-08-17T23:11:49.348Z,100544.38
2022-08-17T23:14:19.242Z,100533.66
2022-08-17T23:16:47.760Z,100538.63
2022-08-17T23:19:17.231Z,100539.19
2022-08-17T23:21:44.906Z,100534.78
2022-08-17T23:24:15.278Z,100531.19
2022-08-17T23:26:42.649Z,100529.25
2022-08-17T23:29:10.117Z,100514.94
2022-08-17T23:31:38.586Z,100511.06
2022-08-17T23:34:09.260Z,100514.94
2022-08-17T23:36:36.743Z,100505.53
2022-08-17T23:39:05.149Z,100501.97
2022-08-17T23:41:37.833Z,100505.53
2022-08-17T23:44:05.255Z,100496.44
2022-08-17T23:46:32.869Z,100481.00
2022-08-17T23:49:00.526Z,100504.72
2022-08-17T23:51:29.167Z,100495.63
2022-08-17T23:53:58.254Z,100485.41
2022-08-17T23:56:28.676Z,100477.97
2022-08-17T23:58:56.104Z,100473.56
